Time;durP1;ratioP1;P1;durP2;ratioP2;P2;SDS_P1;SDS_P2;PMS_P1;PMS_P2;Temp;Humidity;BMP_temperature;BMP_pressure;BME280_temperature;BME280_humidity;BME280_pressure;Samples;Min_cycle;Max_cycle;Signal;HPM_P1;HPM_P2
2023/02/03 00:01:11;;;;;;;4.07;2.93;;;;;;;4.50;100.00;96761.91;5045130;28;20215;-81
2023/02/03 00:03:36;;;;;;;4.53;3.27;;;;;;;4.51;100.00;96745.59;5038002;28;20216;-80
2023/02/03 00:06:02;;;;;;;5.77;2.80;;;;;;;4.63;99.69;96734.63;5043777;28;20200;-81
2023/02/03 00:08:27;;;;;;;5.07;3.50;;;;;;;4.53;100.00;96736.03;5042838;28;20186;-80
2023/02/03 00:10:53;;;;;;;6.13;3.87;;;;;;;4.44;100.00;96737.34;5033120;28;20268;-80
2023/02/03 00:13:18;;;;;;;9.20;3.60;;;;;;;4.49;100.00;96737.09;5036309;28;20282;-80
2023/02/03 00:15:44;;;;;;;3.97;3.23;;;;;;;4.57;100.00;96740.09;5035149;28;20228;-80
2023/02/03 00:18:09;;;;;;;5.30;3.73;;;;;;;4.46;100.00;96739.84;5034378;28;20189;-79
2023/02/03 00:20:34;;;;;;;4.50;3.00;;;;;;;4.58;100.00;96744.31;5038185;28;20181;-80
2023/02/03 00:23:07;;;;;;;6.83;3.37;;;;;;;4.57;100.00;96732.38;5041393;28;20252;-80
2023/02/03 00:25:33;;;;;;;5.50;3.43;;;;;;;4.53;100.00;96736.88;5024063;28;20191;-80
2023/02/03 00:27:58;;;;;;;5.07;3.30;;;;;;;4.48;100.00;96728.56;5033499;28;20192;-80
2023/02/03 00:30:23;;;;;;;5.10;3.57;;;;;;;4.58;100.00;96736.59;5042450;28;20252;-79
2023/02/03 00:32:49;;;;;;;6.40;3.73;;;;;;;4.49;100.00;96731.97;5036180;28;20213;-80
2023/02/03 00:35:14;;;;;;;5.83;3.10;;;;;;;4.60;100.00;96733.97;5042329;28;20184;-80
2023/02/03 00:37:39;;;;;;;7.47;3.27;;;;;;;4.52;100.00;96734.38;5034112;28;20198;-80
2023/02/03 00:40:05;;;;;;;7.87;3.70;;;;;;;4.44;100.00;96727.06;5035654;28;20633;-80
2023/02/03 00:42:30;;;;;;;4.80;3.10;;;;;;;4.53;100.00;96726.59;5044928;28;20633;-80
2023/02/03 00:44:55;;;;;;;7.07;3.70;;;;;;;4.52;100.00;96729.25;5032036;28;20188;-80
2023/02/03 00:47:21;;;;;;;5.63;3.53;;;;;;;4.38;100.00;96729.13;5034439;28;20227;-80
2023/02/03 00:49:46;;;;;;;3.57;3.27;;;;;;;4.26;100.00;96731.44;5041939;28;20223;-80
2023/02/03 00:52:11;;;;;;;7.93;3.60;;;;;;;4.40;100.00;96737.59;5035331;28;20211;-80
2023/02/03 00:54:37;;;;;;;7.87;3.43;;;;;;;4.59;100.00;96742.59;5032997;28;20190;-81
2023/02/03 00:57:02;;;;;;;4.90;3.33;;;;;;;4.37;100.00;96745.47;5025007;28;20667;-80
2023/02/03 00:59:27;;;;;;;4.80;3.40;;;;;;;4.54;100.00;96742.84;5033484;28;20219;-80
2023/02/03 01:01:53;;;;;;;5.87;3.90;;;;;;;4.46;100.00;96745.00;5036752;28;20210;-79
2023/02/03 01:04:18;;;;;;;4.37;3.43;;;;;;;4.55;100.00;96744.50;5034993;28;20192;-79
2023/02/03 01:06:43;;;;;;;3.83;3.20;;;;;;;4.49;100.00;96749.97;5040914;28;20685;-80
2023/02/03 01:09:09;;;;;;;4.10;2.70;;;;;;;4.59;100.00;96760.59;5040589;28;20191;-79
2023/02/03 01:11:34;;;;;;;4.30;3.23;;;;;;;4.42;100.00;96743.50;5032089;28;20224;-80
2023/02/03 01:14:00;;;;;;;6.07;3.70;;;;;;;4.30;100.00;96742.38;5040337;28;20193;-80
2023/02/03 01:16:27;;;;;;;6.60;3.47;;;;;;;4.44;100.00;96726.25;5044624;28;20660;-80
2023/02/03 01:18:52;;;;;;;5.13;3.40;;;;;;;4.45;100.00;96728.72;5034486;28;20238;-80
2023/02/03 01:21:23;;;;;;;5.50;3.33;;;;;;;4.24;100.00;96719.56;5032666;28;20210;-79
2023/02/03 01:23:49;;;;;;;4.90;3.40;;;;;;;4.41;100.00;96701.50;5028023;28;20198;-80
2023/02/03 01:26:17;;;;;;;4.97;3.20;;;;;;;4.50;100.00;96701.00;5033826;28;20203;-80
2023/02/03 01:28:42;;;;;;;5.17;3.27;;;;;;;4.53;100.00;96708.56;5032385;28;20235;-80
2023/02/03 01:31:19;;;;;;;6.83;3.43;;;;;;;4.42;100.00;96720.34;5041699;28;20774;-80
2023/02/03 01:33:47;;;;;;;6.63;3.10;;;;;;;4.38;100.00;96701.66;5030181;28;20216;-80
2023/02/03 01:36:13;;;;;;;3.30;3.00;;;;;;;4.49;100.00;96693.38;5035383;28;20275;-80
2023/02/03 01:38:39;;;;;;;4.23;3.17;;;;;;;4.29;100.00;96699.59;5039110;28;20264;-80
2023/02/03 01:41:07;;;;;;;3.03;2.73;;;;;;;4.53;100.00;96718.03;5034168;28;20205;-81
2023/02/03 01:43:35;;;;;;;5.57;2.93;;;;;;;4.40;100.00;96724.72;5031779;28;20186;-79
2023/02/03 01:46:04;;;;;;;4.13;3.20;;;;;;;4.48;100.00;96725.16;5030721;28;20198;-80
2023/02/03 01:48:31;;;;;;;4.47;3.57;;;;;;;4.50;100.00;96724.16;5042172;28;20186;-80
2023/02/03 01:50:59;;;;;;;5.10;3.13;;;;;;;4.49;100.00;96739.66;5040672;28;20214;-80
2023/02/03 01:53:24;;;;;;;4.43;2.67;;;;;;;4.49;100.00;96727.63;5048032;28;20201;-79
2023/02/03 01:55:50;;;;;;;3.00;2.70;;;;;;;4.65;99.54;96725.09;5030524;28;20182;-79
2023/02/03 01:58:24;;;;;;;3.13;2.70;;;;;;;4.53;100.00;96720.59;5043402;28;20255;-79
2023/02/03 02:00:51;;;;;;;3.30;2.53;;;;;;;4.48;100.00;96720.00;5030685;28;20182;-80
2023/02/03 02:03:19;;;;;;;3.03;2.30;;;;;;;4.53;100.00;96705.16;5037376;28;20186;-82
2023/02/03 02:05:49;;;;;;;3.03;2.43;;;;;;;4.30;100.00;96703.81;5032129;28;20246;-80
2023/02/03 02:08:17;;;;;;;3.10;2.40;;;;;;;4.61;100.00;96692.72;5054843;28;20675;-80
2023/02/03 02:10:42;;;;;;;4.30;2.57;;;;;;;4.53;100.00;96684.59;5034424;28;20221;-80
2023/02/03 02:13:08;;;;;;;4.63;2.40;;;;;;;4.52;100.00;96659.78;5033286;28;20642;-80
2023/02/03 02:16:02;;;;;;;2.73;2.47;;;;;;;4.39;100.00;96651.06;5032709;28;20323;-79
2023/02/03 02:18:48;;;;;;;2.00;1.90;;;;;;;4.35;100.00;96647.00;5024172;28;20197;-80
2023/02/03 02:21:29;;;;;;;3.63;2.10;;;;;;;4.33;100.00;96635.94;5048635;28;20202;-80
2023/02/03 02:24:22;;;;;;;1.93;1.70;;;;;;;4.53;100.00;96638.28;5046187;28;20190;-79
2023/02/03 02:27:03;;;;;;;2.43;1.60;;;;;;;4.53;100.00;96644.25;5046276;28;20731;-81
2023/02/03 02:29:54;;;;;;;2.87;1.57;;;;;;;4.56;100.00;96656.13;5046767;28;20198;-80
2023/02/03 02:32:39;;;;;;;2.67;1.20;;;;;;;4.55;100.00;96663.00;5041316;28;20720;-81
2023/02/03 02:35:24;;;;;;;1.70;1.60;;;;;;;4.33;100.00;96649.66;5058564;28;20559;-80
2023/02/03 02:38:01;;;;;;;1.80;1.70;;;;;;;4.40;100.00;96647.56;5035781;28;20707;-81
2023/02/03 02:40:35;;;;;;;5.13;2.30;;;;;;;4.42;100.00;96630.34;5041974;28;20193;-80
2023/02/03 02:43:27;;;;;;;2.80;1.70;;;;;;;4.40;100.00;96638.09;5018666;28;20196;-80
2023/02/03 02:46:01;;;;;;;4.43;2.10;;;;;;;4.45;100.00;96633.56;5038992;28;20194;-80
2023/02/03 02:48:42;;;;;;;2.63;2.10;;;;;;;4.42;100.00;96625.19;5033118;28;20301;-80
2023/02/03 02:51:08;;;;;;;2.63;2.43;;;;;;;4.46;100.00;96648.06;5030189;28;20253;-80
2023/02/03 02:53:38;;;;;;;3.30;2.20;;;;;;;4.45;100.00;96646.41;5027414;28;20230;-81
2023/02/03 02:56:06;;;;;;;3.57;2.17;;;;;;;4.47;100.00;96654.03;5031272;28;20188;-80
2023/02/03 02:58:34;;;;;;;2.53;1.87;;;;;;;4.60;100.00;96638.78;5029525;28;20215;-80
2023/02/03 03:01:00;;;;;;;2.27;1.57;;;;;;;4.51;100.00;96640.13;5048267;28;20212;-80
2023/02/03 03:03:26;;;;;;;2.33;1.50;;;;;;;4.48;100.00;96637.69;5045838;28;20784;-80
2023/02/03 03:05:53;;;;;;;2.17;1.60;;;;;;;4.67;99.32;96635.78;5041869;28;20174;-80
2023/02/03 03:08:22;;;;;;;2.83;1.43;;;;;;;4.59;99.67;96617.34;5032913;28;20243;-80
2023/02/03 03:10:48;;;;;;;3.00;1.80;;;;;;;4.62;99.50;96618.94;5031573;28;20194;-80
2023/02/03 03:13:23;;;;;;;1.77;1.30;;;;;;;4.60;99.52;96618.22;5031996;28;20268;-80
2023/02/03 03:15:50;;;;;;;2.10;1.50;;;;;;;4.54;99.27;96604.75;5046131;28;20183;-80
2023/02/03 03:18:29;;;;;;;1.87;1.70;;;;;;;4.59;99.04;96601.09;5032718;28;20250;-80
2023/02/03 03:20:56;;;;;;;1.60;1.50;;;;;;;4.62;98.74;96606.91;5039322;28;20193;-81
2023/02/03 03:23:26;;;;;;;1.43;1.20;;;;;;;4.72;97.93;96605.47;5030359;28;20182;-80
2023/02/03 03:26:23;;;;;;;2.50;2.00;;;;;;;4.64;98.47;96602.50;5030192;28;20190;-81
2023/02/03 03:28:52;;;;;;;3.83;1.57;;;;;;;4.74;98.18;96605.38;5050491;28;20227;-80
2023/02/03 03:31:18;;;;;;;3.23;1.63;;;;;;;4.51;98.82;96622.94;5031660;28;20214;-80
2023/02/03 03:33:44;;;;;;;2.37;1.80;;;;;;;4.66;97.88;96628.13;5037953;28;20209;-81
2023/02/03 03:36:18;;;;;;;2.47;1.60;;;;;;;4.59;98.93;96643.06;5033470;28;20201;-81
2023/02/03 03:38:52;;;;;;;3.33;1.63;;;;;;;4.71;98.15;96654.47;5032932;28;20280;-80
2023/02/03 03:41:34;;;;;;;1.87;1.53;;;;;;;4.74;97.90;96659.41;5023494;28;20222;-80
2023/02/03 03:44:02;;;;;;;2.27;1.43;;;;;;;4.73;97.78;96656.03;5053580;28;20259;-80
2023/02/03 03:46:32;;;;;;;4.13;1.77;;;;;;;4.77;97.44;96662.69;5040303;28;20573;-81
2023/02/03 03:49:01;;;;;;;2.63;1.57;;;;;;;4.82;97.46;96658.09;5045897;28;20187;-80
2023/02/03 03:51:34;;;;;;;3.07;1.40;;;;;;;4.81;97.60;96663.31;5050516;28;20217;-80
2023/02/03 03:54:04;;;;;;;3.43;1.43;;;;;;;4.83;97.37;96672.59;5036143;28;20216;-81
2023/02/03 03:56:35;;;;;;;2.17;1.80;;;;;;;4.92;96.57;96678.16;5048306;28;20209;-80
2023/02/03 03:59:01;;;;;;;1.70;1.50;;;;;;;4.83;97.36;96684.66;5037870;28;20271;-80
2023/02/03 04:01:28;;;;;;;1.53;1.43;;;;;;;4.83;97.83;96698.34;5046819;28;20215;-80
2023/02/03 04:03:56;;;;;;;2.73;1.43;;;;;;;4.93;97.59;96710.72;5051604;28;20189;-81
2023/02/03 04:06:22;;;;;;;1.90;1.63;;;;;;;4.86;98.83;96706.81;5048114;28;20206;-81
2023/02/03 04:08:47;;;;;;;2.27;1.80;;;;;;;4.72;99.49;96699.84;5041934;28;20190;-81
2023/02/03 04:11:59;;;;;;;2.87;1.47;;;;;;;4.74;99.87;96693.69;5045620;28;20690;-79
2023/02/03 04:13:58;;;;;;;1.40;1.30;;;;;;;4.86;99.42;96697.38;5045036;28;20185;-81
2023/02/03 04:16:23;;;;;;;2.80;1.60;;;;;;;4.91;99.44;96704.81;5046907;28;20186;-80
2023/02/03 04:18:48;;;;;;;2.03;1.30;;;;;;;4.62;100.00;96703.84;5027980;28;20255;-80
2023/02/03 04:21:14;;;;;;;2.67;1.60;;;;;;;4.57;100.00;96714.38;5046887;28;20202;-80
2023/02/03 04:23:39;;;;;;;1.80;1.57;;;;;;;4.60;100.00;96718.53;5035871;28;20207;-79
2023/02/03 04:26:04;;;;;;;1.67;1.57;;;;;;;4.72;100.00;96689.56;5049984;28;20191;-82
2023/02/03 04:28:29;;;;;;;2.13;1.93;;;;;;;4.61;100.00;96697.88;5037891;28;20189;-80
2023/02/03 04:30:55;;;;;;;3.13;2.00;;;;;;;4.53;100.00;96690.56;5049561;28;20210;-80
2023/02/03 04:33:20;;;;;;;1.57;1.47;;;;;;;4.66;100.00;96677.03;5048817;28;20217;-80
2023/02/03 04:35:45;;;;;;;1.47;1.37;;;;;;;4.58;100.00;96677.44;5039294;28;20196;-81
2023/02/03 04:38:10;;;;;;;1.80;1.70;;;;;;;4.60;100.00;96673.06;5037217;28;20547;-80
2023/02/03 04:40:36;;;;;;;1.97;1.63;;;;;;;4.41;100.00;96669.81;5046181;28;20402;-79
2023/02/03 04:43:06;;;;;;;1.60;1.50;;;;;;;4.57;100.00;96662.09;5058415;28;20246;-80
2023/02/03 04:45:31;;;;;;;3.73;1.50;;;;;;;4.54;100.00;96661.34;5064000;28;20189;-80
2023/02/03 04:47:57;;;;;;;2.37;1.90;;;;;;;4.65;100.00;96665.91;5062239;28;20588;-80
2023/02/03 04:50:22;;;;;;;2.20;2.00;;;;;;;4.68;100.00;96682.91;5050478;28;20206;-81
2023/02/03 04:52:47;;;;;;;1.57;1.47;;;;;;;4.68;100.00;96665.75;5049434;28;20208;-80
2023/02/03 04:55:13;;;;;;;2.23;2.00;;;;;;;4.62;100.00;96678.13;5055150;28;20204;-81
2023/02/03 04:57:38;;;;;;;2.40;2.20;;;;;;;4.57;100.00;96672.38;5048636;28;20186;-80
2023/02/03 05:00:04;;;;;;;2.80;2.00;;;;;;;4.59;100.00;96676.53;5059478;28;20549;-81
2023/02/03 05:02:29;;;;;;;1.60;1.50;;;;;;;4.72;100.00;96677.53;5039679;28;20204;-82
2023/02/03 05:04:54;;;;;;;3.03;1.90;;;;;;;4.76;100.00;96671.28;5039592;28;20216;-81
2023/02/03 05:07:20;;;;;;;2.20;1.93;;;;;;;4.57;100.00;96675.78;5048064;28;20579;-80
2023/02/03 05:09:45;;;;;;;2.20;2.00;;;;;;;4.66;100.00;96675.28;5049215;28;20219;-81
2023/02/03 05:12:10;;;;;;;2.77;2.20;;;;;;;4.62;100.00;96683.25;5055525;28;20697;-80
2023/02/03 05:14:35;;;;;;;3.10;2.80;;;;;;;4.49;100.00;96672.78;5046346;28;20194;-79
2023/02/03 05:17:01;;;;;;;2.83;2.30;;;;;;;4.62;100.00;96668.66;5048061;28;20185;-81
2023/02/03 05:19:26;;;;;;;3.27;2.53;;;;;;;4.57;100.00;96669.81;5056706;28;20482;-80
2023/02/03 05:21:51;;;;;;;2.30;2.10;;;;;;;4.68;100.00;96676.06;5053820;28;20207;-81
2023/02/03 05:24:16;;;;;;;4.97;2.67;;;;;;;4.88;99.63;96692.13;5063115;28;20182;-79
2023/02/03 05:26:42;;;;;;;4.70;3.40;;;;;;;4.90;99.44;96703.16;5064808;28;20196;-80
2023/02/03 05:29:08;;;;;;;3.80;2.00;;;;;;;4.74;99.90;96690.31;5047031;28;20577;-81
2023/02/03 05:31:34;;;;;;;5.57;3.17;;;;;;;4.64;100.00;96687.41;5039111;28;20242;-78
2023/02/03 05:33:59;;;;;;;4.83;3.20;;;;;;;4.58;100.00;96674.88;5046631;28;20215;-79
2023/02/03 05:36:24;;;;;;;4.47;2.33;;;;;;;4.88;98.92;96687.81;5073327;28;20199;-81
2023/02/03 05:38:50;;;;;;;5.57;2.90;;;;;;;4.94;98.29;96695.16;5055882;28;20200;-81
2023/02/03 05:43:59;;;;;;;10.43;5.70;;;;;;;4.75;99.19;96677.34;5052903;28;20252;-80
2023/02/03 05:46:25;;;;;;;8.00;3.80;;;;;;;4.77;98.68;96679.84;5035019;28;20188;-81
2023/02/03 05:48:50;;;;;;;10.40;6.50;;;;;;;4.82;98.73;96676.09;5044153;28;20684;-79
2023/02/03 05:51:15;;;;;;;10.67;6.87;;;;;;;4.68;99.24;96667.47;5049143;28;20245;-81
2023/02/03 05:53:41;;;;;;;10.13;4.50;;;;;;;4.68;98.74;96672.63;5042763;28;20217;-81
2023/02/03 05:56:06;;;;;;;8.20;4.77;;;;;;;4.82;97.62;96664.97;5050084;28;20191;-80
2023/02/03 05:58:31;;;;;;;7.13;4.03;;;;;;;4.74;98.53;96673.13;5037647;28;20745;-80
2023/02/03 06:00:57;;;;;;;12.40;5.57;;;;;;;4.74;98.71;96662.81;5042282;28;20206;-80
2023/02/03 06:03:22;;;;;;;10.67;5.20;;;;;;;4.69;99.36;96657.13;5047096;28;20211;-81
2023/02/03 06:05:47;;;;;;;9.83;7.10;;;;;;;4.88;98.23;96656.09;5041663;28;20321;-80
2023/02/03 06:08:13;;;;;;;9.73;4.90;;;;;;;4.86;98.12;96660.47;5054315;28;20281;-80
2023/02/03 06:10:38;;;;;;;9.53;4.40;;;;;;;4.92;98.03;96660.16;5046042;28;20214;-79
2023/02/03 06:13:08;;;;;;;8.37;4.80;;;;;;;4.79;98.00;96665.97;5056982;28;20196;-80
2023/02/03 06:15:33;;;;;;;7.23;3.90;;;;;;;4.76;98.45;96642.16;5053280;28;20186;-81
2023/02/03 06:17:58;;;;;;;7.50;5.57;;;;;;;4.88;97.06;96649.19;5050106;28;20272;-80
2023/02/03 06:20:23;;;;;;;3.93;3.27;;;;;;;4.79;97.54;96634.28;5037827;28;20184;-80
2023/02/03 06:22:49;;;;;;;11.87;5.83;;;;;;;4.95;96.39;96647.94;5038373;28;20594;-79
2023/02/03 06:25:14;;;;;;;8.50;4.27;;;;;;;4.85;98.30;96639.06;5046483;28;20290;-80
2023/02/03 06:27:39;;;;;;;5.40;2.80;;;;;;;4.69;99.17;96630.56;5042229;28;20180;-80
2023/02/03 06:30:05;;;;;;;6.70;4.27;;;;;;;4.84;98.67;96645.94;5039687;28;20216;-79
2023/02/03 06:32:30;;;;;;;7.70;3.47;;;;;;;4.92;97.90;96667.88;5052712;28;20216;-80
2023/02/03 06:34:56;;;;;;;8.23;3.57;;;;;;;4.82;98.45;96664.97;5044305;28;20198;-79
2023/02/03 06:37:21;;;;;;;9.23;4.60;;;;;;;4.97;97.63;96663.31;5046541;28;20197;-79
2023/02/03 06:39:46;;;;;;;5.23;2.33;;;;;;;4.75;99.01;96659.34;5038837;28;20189;-80
2023/02/03 06:42:12;;;;;;;5.53;3.20;;;;;;;4.77;98.87;96657.53;5038259;28;20206;-79
2023/02/03 06:44:37;;;;;;;10.23;3.60;;;;;;;4.80;98.85;96648.81;5047288;28;20185;-79
2023/02/03 06:47:02;;;;;;;5.70;3.07;;;;;;;4.77;98.58;96634.38;5038030;28;20240;-81
2023/02/03 06:49:28;;;;;;;7.23;3.23;;;;;;;4.77;99.08;96623.22;5033679;28;20192;-79
2023/02/03 06:51:54;;;;;;;5.43;2.50;;;;;;;4.96;98.05;96630.75;5041926;28;20213;-79
2023/02/03 06:54:19;;;;;;;9.83;3.67;;;;;;;4.83;99.51;96636.56;5038017;28;20196;-79
2023/02/03 06:56:46;;;;;;;5.93;2.60;;;;;;;4.81;99.34;96635.84;5050744;28;20188;-79
2023/02/03 06:59:11;;;;;;;3.10;2.13;;;;;;;4.82;99.41;96646.97;5035692;28;20188;-79
2023/02/03 07:01:36;;;;;;;2.87;2.10;;;;;;;4.83;99.50;96652.03;5039990;28;20244;-79
2023/02/03 07:04:02;;;;;;;3.23;2.10;;;;;;;4.90;99.13;96655.09;5032673;28;20185;-79
2023/02/03 07:06:29;;;;;;;3.07;2.33;;;;;;;4.75;100.00;96631.03;5053003;28;20197;-81
2023/02/03 07:08:55;;;;;;;5.23;2.30;;;;;;;4.65;100.00;96632.47;5046343;28;20211;-80
2023/02/03 07:11:21;;;;;;;3.17;1.40;;;;;;;4.72;100.00;96646.66;5043006;28;20606;-80
2023/02/03 07:13:46;;;;;;;2.50;2.30;;;;;;;4.66;100.00;96630.72;5039839;28;20199;-80
2023/02/03 07:16:11;;;;;;;2.07;1.50;;;;;;;4.76;100.00;96637.81;5058271;28;20247;-79
2023/02/03 07:18:37;;;;;;;1.83;1.40;;;;;;;4.69;100.00;96628.81;5059199;28;20239;-79
2023/02/03 07:21:04;;;;;;;1.73;1.50;;;;;;;4.88;99.94;96635.50;5057438;28;20210;-80
2023/02/03 07:23:29;;;;;;;3.07;1.40;;;;;;;4.88;100.00;96620.88;5058397;28;20186;-79
2023/02/03 07:25:58;;;;;;;3.80;1.90;;;;;;;4.72;100.00;96628.63;5053343;28;20196;-79
2023/02/03 07:28:23;;;;;;;2.00;1.73;;;;;;;4.75;100.00;96613.00;5043283;28;20731;-79
2023/02/03 07:30:49;;;;;;;2.00;1.47;;;;;;;4.65;100.00;96616.19;5060099;28;20197;-79
2023/02/03 07:33:14;;;;;;;2.40;1.67;;;;;;;4.97;99.29;96617.78;5039929;28;20186;-78
2023/02/03 07:35:39;;;;;;;1.80;1.70;;;;;;;4.86;100.00;96619.28;5033662;28;20188;-79
2023/02/03 07:38:05;;;;;;;2.37;1.80;;;;;;;4.94;99.68;96627.41;5050923;28;20554;-78
2023/02/03 07:40:30;;;;;;;3.93;1.63;;;;;;;4.91;99.68;96641.31;5054944;28;20183;-78
2023/02/03 07:42:56;;;;;;;2.93;1.60;;;;;;;4.99;99.80;96643.44;5036988;28;20202;-79
2023/02/03 07:45:23;;;;;;;2.70;1.60;;;;;;;5.04;98.93;96642.28;5041946;28;20212;-79
2023/02/03 07:47:48;;;;;;;3.97;1.50;;;;;;;5.03;99.11;96655.22;5056652;28;20246;-78
2023/02/03 07:50:14;;;;;;;4.93;1.80;;;;;;;5.04;99.29;96664.63;5045404;28;20231;-79
2023/02/03 07:52:39;;;;;;;1.73;1.27;;;;;;;4.98;99.60;96652.91;5053715;28;20287;-78
2023/02/03 07:55:05;;;;;;;1.20;1.10;;;;;;;5.04;99.73;96672.34;5041045;28;20185;-80
2023/02/03 07:57:30;;;;;;;1.23;1.20;;;;;;;5.00;99.78;96673.41;5047876;28;20704;-78
2023/02/03 07:59:55;;;;;;;1.30;1.20;;;;;;;5.09;99.59;96678.88;5038182;28;20180;-80
2023/02/03 08:02:21;;;;;;;2.10;1.13;;;;;;;5.03;99.93;96704.13;5054281;28;20201;-78
2023/02/03 08:04:46;;;;;;;1.40;1.30;;;;;;;4.96;100.00;96688.22;5050682;28;20258;-80
2023/02/03 08:07:11;;;;;;;1.47;1.30;;;;;;;4.90;100.00;96669.69;5045052;28;20194;-79
2023/02/03 08:09:37;;;;;;;2.23;1.30;;;;;;;4.81;100.00;96707.06;5038135;28;20202;-80
2023/02/03 08:12:02;;;;;;;2.40;1.40;;;;;;;4.98;100.00;96701.81;5034889;28;20273;-79
2023/02/03 08:14:28;;;;;;;6.07;1.47;;;;;;;4.80;100.00;96690.81;5038515;28;20190;-80
2023/02/03 08:16:53;;;;;;;4.63;1.90;;;;;;;5.09;100.00;96703.78;5028274;28;20214;-79
2023/02/03 08:19:21;;;;;;;1.50;1.40;;;;;;;4.96;100.00;96692.53;5043083;28;20201;-79
2023/02/03 08:21:47;;;;;;;1.77;1.60;;;;;;;5.07;100.00;96695.34;5031947;28;20201;-80
2023/02/03 08:24:13;;;;;;;2.63;1.50;;;;;;;5.10;100.00;96705.44;5053717;28;20178;-79
2023/02/03 08:26:38;;;;;;;4.33;1.47;;;;;;;5.02;100.00;96698.16;5040161;28;20291;-79
2023/02/03 08:29:03;;;;;;;2.27;1.37;;;;;;;5.10;99.91;96706.28;5049411;28;20201;-79
2023/02/03 08:31:29;;;;;;;2.83;1.70;;;;;;;5.22;100.00;96704.78;5039928;28;20217;-80
2023/02/03 08:33:55;;;;;;;1.73;1.63;;;;;;;5.11;99.92;96720.81;5048629;28;20227;-79
2023/02/03 08:36:20;;;;;;;2.13;1.93;;;;;;;5.04;99.91;96718.69;5069896;28;20194;-78
2023/02/03 08:38:45;;;;;;;2.23;1.37;;;;;;;5.06;98.81;96720.25;5044550;28;20194;-79
2023/02/03 08:41:12;;;;;;;2.00;1.70;;;;;;;5.03;99.46;96720.41;5034954;28;20585;-77
2023/02/03 08:43:39;;;;;;;1.67;1.57;;;;;;;5.15;98.65;96724.06;5040528;28;20213;-79
2023/02/03 08:46:05;;;;;;;3.93;2.13;;;;;;;4.92;99.21;96709.88;5036730;28;20216;-78
2023/02/03 08:48:31;;;;;;;2.40;1.30;;;;;;;5.13;98.22;96731.06;5042457;28;20187;-79
2023/02/03 08:50:57;;;;;;;1.77;1.30;;;;;;;5.18;97.52;96723.88;5057158;28;20236;-78
2023/02/03 08:53:22;;;;;;;4.07;1.60;;;;;;;5.33;97.74;96715.28;5057671;28;20201;-80
2023/02/03 08:55:48;;;;;;;2.10;1.50;;;;;;;5.39;97.64;96714.97;5054853;28;20193;-79
2023/02/03 08:58:13;;;;;;;2.00;1.67;;;;;;;5.29;98.77;96716.38;5065225;28;20196;-79
2023/02/03 09:00:38;;;;;;;2.23;1.60;;;;;;;5.20;99.24;96727.19;5050697;28;20609;-79
2023/02/03 09:03:04;;;;;;;1.50;1.40;;;;;;;5.28;99.32;96712.13;5056476;28;20273;-79
2023/02/03 09:05:30;;;;;;;2.10;1.10;;;;;;;5.05;100.00;96712.63;5057640;28;20201;-80
2023/02/03 09:07:55;;;;;;;1.37;1.20;;;;;;;5.23;100.00;96721.88;5049991;28;20216;-78
2023/02/03 09:10:21;;;;;;;2.97;1.47;;;;;;;5.35;100.00;96708.31;5049575;28;20204;-79
2023/02/03 09:12:46;;;;;;;1.90;1.30;;;;;;;5.30;99.92;96705.19;5045964;28;20198;-77
2023/02/03 09:15:11;;;;;;;2.40;1.10;;;;;;;5.06;100.00;96703.97;5048081;28;20232;-79
2023/02/03 09:17:37;;;;;;;1.60;1.20;;;;;;;5.22;100.00;96711.69;5047628;28;20247;-78
2023/02/03 09:20:02;;;;;;;1.40;1.20;;;;;;;5.45;99.64;96703.47;5062879;28;20171;-79
2023/02/03 09:22:27;;;;;;;1.37;1.10;;;;;;;5.40;100.00;96703.72;5056540;28;20221;-80
2023/02/03 09:24:53;;;;;;;2.20;1.50;;;;;;;5.66;98.72;96709.97;5054444;28;20201;-79
2023/02/03 09:27:18;;;;;;;2.67;1.20;;;;;;;5.58;98.93;96712.16;5059203;28;20201;-79
2023/02/03 09:29:43;;;;;;;1.57;1.10;;;;;;;5.81;97.91;96713.38;5047899;28;20609;-79
2023/02/03 09:32:09;;;;;;;3.87;1.53;;;;;;;5.66;98.35;96703.97;5045977;28;20218;-79
2023/02/03 09:34:35;;;;;;;1.70;1.20;;;;;;;5.35;97.67;96710.88;5055906;28;20208;-80
2023/02/03 09:37:00;;;;;;;1.40;1.00;;;;;;;5.56;98.04;96711.38;5043785;28;20201;-79
2023/02/03 09:39:26;;;;;;;2.17;1.97;;;;;;;5.58;98.84;96695.88;5045421;28;20220;-79
2023/02/03 09:42:09;;;;;;;1.93;1.77;;;;;;;5.37;97.94;96703.06;5057190;28;20236;-79
2023/02/03 09:44:40;;;;;;;2.53;1.73;;;;;;;5.58;98.02;96701.84;5060425;28;20258;-80
2023/02/03 09:47:27;;;;;;;1.60;1.40;;;;;;;5.77;96.66;96696.44;5057694;28;20208;-79
2023/02/03 09:50:01;;;;;;;2.43;1.53;;;;;;;5.78;96.47;96695.53;5042765;28;20209;-79
2023/02/03 09:52:29;;;;;;;4.43;3.03;;;;;;;5.94;95.20;96693.72;5045223;28;20208;-78
2023/02/03 09:55:19;;;;;;;2.20;1.80;;;;;;;5.87;94.87;96700.13;5037153;28;20246;-80
2023/02/03 09:58:00;;;;;;;1.67;1.57;;;;;;;6.00;94.60;96697.69;5060826;28;20272;-78
2023/02/03 10:00:29;;;;;;;2.80;1.60;;;;;;;6.25;93.78;96705.59;5043540;28;20255;-78
2023/02/03 10:03:00;;;;;;;1.30;1.20;;;;;;;5.94;93.93;96710.94;5043509;28;20206;-81
2023/02/03 10:05:47;;;;;;;1.50;1.40;;;;;;;5.86;94.12;96710.53;5058967;28;20193;-80
2023/02/03 10:08:29;;;;;;;2.33;2.13;;;;;;;5.88;94.58;96693.22;5053320;28;20192;-79
2023/02/03 10:11:09;;;;;;;1.87;1.03;;;;;;;5.64;96.46;96680.84;5043484;28;20237;-78
2023/02/03 10:14:06;;;;;;;1.20;1.10;;;;;;;6.10;94.20;96688.50;5038528;28;20217;-78
2023/02/03 10:16:39;;;;;;;5.00;2.20;;;;;;;6.22;94.21;96692.06;5045072;28;20709;-80
2023/02/03 10:19:10;;;;;;;4.80;2.53;;;;;;;6.33;92.20;96697.41;5057268;28;20694;-80
2023/02/03 10:21:39;;;;;;;2.37;1.30;;;;;;;6.21;93.77;96701.56;5051949;28;20206;-79
2023/02/03 10:24:09;;;;;;;2.10;1.40;;;;;;;6.03;93.79;96714.72;5045278;28;20748;-79
2023/02/03 10:26:37;;;;;;;2.17;1.53;;;;;;;6.35;92.66;96716.19;5045791;28;20196;-79
2023/02/03 10:29:12;;;;;;;1.37;1.13;;;;;;;6.16;91.78;96698.41;5051244;28;20190;-78
2023/02/03 10:31:37;;;;;;;1.57;1.00;;;;;;;6.05;91.79;96695.66;5053796;28;20221;-78
2023/02/03 10:34:12;;;;;;;2.30;1.57;;;;;;;6.31;90.41;96712.16;5041471;28;20223;-79
2023/02/03 10:36:55;;;;;;;1.30;1.20;;;;;;;6.35;90.03;96716.19;5040853;28;20258;-78
2023/02/03 10:39:46;;;;;;;2.57;1.40;;;;;;;6.25;91.46;96728.00;5044009;28;20193;-78
2023/02/03 10:42:12;;;;;;;1.30;1.17;;;;;;;6.11;92.25;96720.28;5056673;28;20714;-80
2023/02/03 10:44:58;;;;;;;2.73;1.00;;;;;;;5.70;94.53;96720.91;5036079;28;20202;-80
2023/02/03 10:47:26;;;;;;;1.13;1.03;;;;;;;5.78;95.14;96703.25;5049955;28;20566;-78
2023/02/03 10:49:54;;;;;;;1.73;1.07;;;;;;;5.83;95.27;96690.06;5044799;28;20197;-78
2023/02/03 10:52:25;;;;;;;3.73;2.07;;;;;;;6.05;94.18;96674.22;5040763;28;20226;-78
2023/02/03 10:54:50;;;;;;;1.20;1.10;;;;;;;6.06;93.66;96665.53;5057161;28;20216;-78
2023/02/03 10:57:16;;;;;;;1.10;1.00;;;;;;;6.15;92.84;96670.97;5047093;28;20213;-78
2023/02/03 10:59:43;;;;;;;1.40;1.30;;;;;;;5.72;95.79;96662.38;5038277;28;20181;-78
2023/02/03 11:02:37;;;;;;;1.73;1.50;;;;;;;6.13;93.75;96674.56;5047588;28;20197;-80
2023/02/03 11:05:14;;;;;;;1.30;1.20;;;;;;;6.31;92.83;96670.03;5039548;28;20235;-80
2023/02/03 11:07:40;;;;;;;1.83;1.33;;;;;;;6.06;92.82;96670.69;5049176;28;20221;-79
2023/02/03 11:10:28;;;;;;;1.23;1.03;;;;;;;6.29;91.79;96646.94;5041120;28;20205;-78
2023/02/03 11:13:18;;;;;;;2.90;1.37;;;;;;;6.61;90.18;96662.16;5035214;28;20206;-77
2023/02/03 11:15:50;;;;;;;1.37;1.13;;;;;;;6.55;89.50;96657.38;5048838;28;20193;-77
2023/02/03 11:18:40;;;;;;;4.40;1.83;;;;;;;6.37;91.13;96659.34;5079412;28;20590;-77
2023/02/03 11:21:12;;;;;;;1.43;1.03;;;;;;;6.24;91.14;96646.38;5041722;28;20293;-77
2023/02/03 11:24:02;;;;;;;1.63;1.00;;;;;;;6.05;91.64;96646.66;5032611;28;20622;-80
2023/02/03 11:26:31;;;;;;;1.10;0.90;;;;;;;5.99;93.37;96653.94;5021901;28;20185;-80
2023/02/03 11:28:59;;;;;;;2.57;1.20;;;;;;;5.88;93.51;96652.81;5036438;28;20218;-80
2023/02/03 11:31:26;;;;;;;1.60;1.00;;;;;;;6.09;92.66;96645.53;5048760;28;20225;-79
2023/02/03 11:33:57;;;;;;;1.43;1.33;;;;;;;6.09;93.06;96649.88;5035545;28;20177;-78
2023/02/03 11:36:25;;;;;;;5.57;1.57;;;;;;;6.09;91.85;96630.06;5035287;28;20230;-79
2023/02/03 11:38:50;;;;;;;2.67;1.80;;;;;;;6.12;91.39;96627.31;5052484;28;20205;-78
2023/02/03 11:41:18;;;;;;;2.40;1.90;;;;;;;6.06;91.64;96640.59;5034045;28;20215;-79
2023/02/03 11:43:45;;;;;;;5.10;2.03;;;;;;;6.09;91.64;96632.66;5034385;28;20210;-79
2023/02/03 11:46:10;;;;;;;2.13;1.60;;;;;;;6.06;90.79;96625.13;5043784;28;20193;-79